sensor_id;sensor_type;location;lat;lon;timestamp;temperature;humidity
48328;DHT22;34136;51.022;7.082;2023-04-03T00:02:32;2.20;1.00
48328;DHT22;34136;51.022;7.082;2023-04-03T00:05:18;2.10;1.00
48328;DHT22;34136;51.022;7.082;2023-04-03T00:08:04;2.00;1.00
48328;DHT22;34136;51.022;7.082;2023-04-03T00:10:51;1.90;1.00
48328;DHT22;34136;51.022;7.082;2023-04-03T00:13:38;1.90;1.00
48328;DHT22;34136;51.022;7.082;2023-04-03T00:16:24;1.90;1.00
48328;DHT22;34136;51.022;7.082;2023-04-03T00:19:11;1.90;1.00
48328;DHT22;34136;51.022;7.082;2023-04-03T00:21:57;1.90;1.00
48328;DHT22;34136;51.022;7.082;2023-04-03T00:24:44;2.00;1.00
48328;DHT22;34136;51.022;7.082;2023-04-03T00:27:30;1.90;1.00
48328;DHT22;34136;51.022;7.082;2023-04-03T00:30:17;1.90;1.00
48328;DHT22;34136;51.022;7.082;2023-04-03T00:33:04;1.80;1.00
48328;DHT22;34136;51.022;7.082;2023-04-03T00:35:50;1.70;1.00
48328;DHT22;34136;51.022;7.082;2023-04-03T00:38:37;1.60;1.00
48328;DHT22;34136;51.022;7.082;2023-04-03T00:41:23;1.50;1.00
48328;DHT22;34136;51.022;7.082;2023-04-03T00:47:29;1.40;1.00
48328;DHT22;34136;51.022;7.082;2023-04-03T00:50:16;1.40;1.00
48328;DHT22;34136;51.022;7.082;2023-04-03T00:53:05;1.40;1.00
48328;DHT22;34136;51.022;7.082;2023-04-03T00:55:54;1.40;1.00
48328;DHT22;34136;51.022;7.082;2023-04-03T00:59:15;1.40;1.00
48328;DHT22;34136;51.022;7.082;2023-04-03T01:02:03;1.40;1.00
48328;DHT22;34136;51.022;7.082;2023-04-03T01:04:49;1.30;1.00
48328;DHT22;34136;51.022;7.082;2023-04-03T01:07:35;1.30;1.00
48328;DHT22;34136;51.022;7.082;2023-04-03T01:10:21;1.30;1.00
48328;DHT22;34136;51.022;7.082;2023-04-03T01:13:26;1.20;1.00
48328;DHT22;34136;51.022;7.082;2023-04-03T01:16:14;1.20;1.00
48328;DHT22;34136;51.022;7.082;2023-04-03T01:19:03;1.20;1.00
48328;DHT22;34136;51.022;7.082;2023-04-03T01:22:10;1.20;1.00
48328;DHT22;34136;51.022;7.082;2023-04-03T01:25:00;1.20;1.00
48328;DHT22;34136;51.022;7.082;2023-04-03T01:27:47;1.10;1.00
48328;DHT22;34136;51.022;7.082;2023-04-03T01:30:36;1.00;1.00
48328;DHT22;34136;51.022;7.082;2023-04-03T01:33:25;1.00;1.00
48328;DHT22;34136;51.022;7.082;2023-04-03T01:36:19;1.00;1.00
48328;DHT22;34136;51.022;7.082;2023-04-03T01:39:07;1.10;1.00
48328;DHT22;34136;51.022;7.082;2023-04-03T01:41:53;1.20;1.00
48328;DHT22;34136;51.022;7.082;2023-04-03T01:44:46;1.30;1.00
48328;DHT22;34136;51.022;7.082;2023-04-03T01:47:32;1.30;1.00
48328;DHT22;34136;51.022;7.082;2023-04-03T01:50:18;1.20;1.00
48328;DHT22;34136;51.022;7.082;2023-04-03T01:53:05;1.10;1.00
48328;DHT22;34136;51.022;7.082;2023-04-03T01:55:52;1.10;1.00
48328;DHT22;34136;51.022;7.082;2023-04-03T01:58:40;1.10;1.00
48328;DHT22;34136;51.022;7.082;2023-04-03T02:01:26;1.20;1.00
48328;DHT22;34136;51.022;7.082;2023-04-03T02:04:13;1.20;1.00
48328;DHT22;34136;51.022;7.082;2023-04-03T02:06:59;1.10;1.00
48328;DHT22;34136;51.022;7.082;2023-04-03T02:09:45;1.20;1.00
48328;DHT22;34136;51.022;7.082;2023-04-03T02:12:32;1.20;1.00
48328;DHT22;34136;51.022;7.082;2023-04-03T02:15:18;1.00;1.00
48328;DHT22;34136;51.022;7.082;2023-04-03T02:18:05;0.90;1.00
48328;DHT22;34136;51.022;7.082;2023-04-03T02:20:51;1.00;1.00
48328;DHT22;34136;51.022;7.082;2023-04-03T02:23:37;1.00;1.00
48328;DHT22;34136;51.022;7.082;2023-04-03T02:26:24;1.00;1.00
48328;DHT22;34136;51.022;7.082;2023-04-03T02:29:10;0.80;1.00
48328;DHT22;34136;51.022;7.082;2023-04-03T02:31:56;0.80;1.00
48328;DHT22;34136;51.022;7.082;2023-04-03T02:34:44;0.80;1.00
48328;DHT22;34136;51.022;7.082;2023-04-03T02:37:32;1.00;1.00
48328;DHT22;34136;51.022;7.082;2023-04-03T02:40:19;0.90;1.00
48328;DHT22;34136;51.022;7.082;2023-04-03T02:43:05;0.80;1.00
48328;DHT22;34136;51.022;7.082;2023-04-03T02:45:53;0.90;1.00
48328;DHT22;34136;51.022;7.082;2023-04-03T02:48:39;0.80;1.00
48328;DHT22;34136;51.022;7.082;2023-04-03T02:51:25;0.80;1.00
48328;DHT22;34136;51.022;7.082;2023-04-03T02:54:13;0.70;1.00
48328;DHT22;34136;51.022;7.082;2023-04-03T02:57:04;0.70;1.00
48328;DHT22;34136;51.022;7.082;2023-04-03T02:59:50;0.70;1.00
48328;DHT22;34136;51.022;7.082;2023-04-03T03:02:36;0.50;1.00
48328;DHT22;34136;51.022;7.082;2023-04-03T03:05:23;0.60;1.00
48328;DHT22;34136;51.022;7.082;2023-04-03T03:08:09;0.60;1.00
48328;DHT22;34136;51.022;7.082;2023-04-03T03:10:56;0.60;1.00
48328;DHT22;34136;51.022;7.082;2023-04-03T03:13:42;0.70;1.00
48328;DHT22;34136;51.022;7.082;2023-04-03T03:16:28;0.70;1.00
48328;DHT22;34136;51.022;7.082;2023-04-03T03:19:16;0.60;1.00
48328;DHT22;34136;51.022;7.082;2023-04-03T03:22:02;0.60;1.00
48328;DHT22;34136;51.022;7.082;2023-04-03T03:24:49;0.50;1.00
48328;DHT22;34136;51.022;7.082;2023-04-03T03:27:35;0.60;1.00
48328;DHT22;34136;51.022;7.082;2023-04-03T03:30:22;0.60;1.00
48328;DHT22;34136;51.022;7.082;2023-04-03T03:33:08;0.60;1.00
48328;DHT22;34136;51.022;7.082;2023-04-03T03:35:55;0.50;1.00
48328;DHT22;34136;51.022;7.082;2023-04-03T03:38:42;0.50;1.00
48328;DHT22;34136;51.022;7.082;2023-04-03T03:41:29;0.40;1.00
48328;DHT22;34136;51.022;7.082;2023-04-03T03:44:15;0.50;1.00
48328;DHT22;34136;51.022;7.082;2023-04-03T03:47:02;0.40;1.00
48328;DHT22;34136;51.022;7.082;2023-04-03T03:49:49;0.40;1.00
48328;DHT22;34136;51.022;7.082;2023-04-03T03:52:35;0.40;1.00
48328;DHT22;34136;51.022;7.082;2023-04-03T03:55:22;0.40;1.00
48328;DHT22;34136;51.022;7.082;2023-04-03T03:58:12;0.40;1.00
48328;DHT22;34136;51.022;7.082;2023-04-03T04:01:05;0.50;1.00
48328;DHT22;34136;51.022;7.082;2023-04-03T04:03:53;0.20;1.00
48328;DHT22;34136;51.022;7.082;2023-04-03T04:06:44;0.20;1.00
48328;DHT22;34136;51.022;7.082;2023-04-03T04:09:30;0.30;1.00
48328;DHT22;34136;51.022;7.082;2023-04-03T04:12:17;0.40;1.00
48328;DHT22;34136;51.022;7.082;2023-04-03T04:15:03;0.40;1.00
48328;DHT22;34136;51.022;7.082;2023-04-03T04:17:50;0.40;1.00
48328;DHT22;34136;51.022;7.082;2023-04-03T04:20:37;0.30;1.00
48328;DHT22;34136;51.022;7.082;2023-04-03T04:23:24;0.20;1.00
48328;DHT22;34136;51.022;7.082;2023-04-03T04:26:11;0.10;1.00
48328;DHT22;34136;51.022;7.082;2023-04-03T04:28:59;0.10;1.00
48328;DHT22;34136;51.022;7.082;2023-04-03T04:31:45;0.20;1.00
48328;DHT22;34136;51.022;7.082;2023-04-03T04:34:31;0.20;1.00
48328;DHT22;34136;51.022;7.082;2023-04-03T04:37:19;0.20;1.00
48328;DHT22;34136;51.022;7.082;2023-04-03T04:40:07;0.20;1.00
48328;DHT22;34136;51.022;7.082;2023-04-03T04:42:53;0.20;1.00
48328;DHT22;34136;51.022;7.082;2023-04-03T04:45:41;0.20;1.00
48328;DHT22;34136;51.022;7.082;2023-04-03T04:48:28;0.20;1.00
48328;DHT22;34136;51.022;7.082;2023-04-03T04:51:15;0.30;1.00
48328;DHT22;34136;51.022;7.082;2023-04-03T04:54:02;0.30;1.00
48328;DHT22;34136;51.022;7.082;2023-04-03T04:56:48;0.30;1.00
48328;DHT22;34136;51.022;7.082;2023-04-03T04:59:35;0.30;1.00
48328;DHT22;34136;51.022;7.082;2023-04-03T05:02:22;0.30;1.00
48328;DHT22;34136;51.022;7.082;2023-04-03T05:05:09;0.30;1.00
48328;DHT22;34136;51.022;7.082;2023-04-03T05:07:56;0.20;1.00
48328;DHT22;34136;51.022;7.082;2023-04-03T05:10:45;0.30;1.00
48328;DHT22;34136;51.022;7.082;2023-04-03T05:13:31;0.40;1.00
48328;DHT22;34136;51.022;7.082;2023-04-03T05:16:18;0.40;1.00
48328;DHT22;34136;51.022;7.082;2023-04-03T05:19:05;0.40;1.00
48328;DHT22;34136;51.022;7.082;2023-04-03T05:21:52;0.40;1.00
48328;DHT22;34136;51.022;7.082;2023-04-03T05:24:38;0.40;1.00
48328;DHT22;34136;51.022;7.082;2023-04-03T05:27:25;0.50;1.00
48328;DHT22;34136;51.022;7.082;2023-04-03T05:30:14;0.50;1.00
48328;DHT22;34136;51.022;7.082;2023-04-03T05:33:01;0.50;1.00
48328;DHT22;34136;51.022;7.082;2023-04-03T05:36:02;0.50;1.00
48328;DHT22;34136;51.022;7.082;2023-04-03T05:38:50;0.50;1.00
48328;DHT22;34136;51.022;7.082;2023-04-03T05:41:37;0.50;1.00
48328;DHT22;34136;51.022;7.082;2023-04-03T05:44:23;0.50;1.00
48328;DHT22;34136;51.022;7.082;2023-04-03T05:47:11;0.60;1.00
48328;DHT22;34136;51.022;7.082;2023-04-03T05:49:57;0.60;1.00
48328;DHT22;34136;51.022;7.082;2023-04-03T05:52:45;0.70;1.00
48328;DHT22;34136;51.022;7.082;2023-04-03T05:55:34;0.70;1.00
48328;DHT22;34136;51.022;7.082;2023-04-03T05:58:20;0.70;1.00
48328;DHT22;34136;51.022;7.082;2023-04-03T06:01:08;0.80;1.00
48328;DHT22;34136;51.022;7.082;2023-04-03T06:03:54;0.90;1.00
48328;DHT22;34136;51.022;7.082;2023-04-03T06:06:52;1.00;1.00
48328;DHT22;34136;51.022;7.082;2023-04-03T06:09:39;1.00;1.00
48328;DHT22;34136;51.022;7.082;2023-04-03T06:12:25;1.20;1.00
48328;DHT22;34136;51.022;7.082;2023-04-03T06:15:12;1.20;1.00
48328;DHT22;34136;51.022;7.082;2023-04-03T06:18:00;1.30;1.00
48328;DHT22;34136;51.022;7.082;2023-04-03T06:20:46;1.30;1.00
48328;DHT22;34136;51.022;7.082;2023-04-03T06:23:33;1.40;1.00
48328;DHT22;34136;51.022;7.082;2023-04-03T06:26:21;1.40;1.00
48328;DHT22;34136;51.022;7.082;2023-04-03T06:29:07;1.50;1.00
48328;DHT22;34136;51.022;7.082;2023-04-03T06:31:54;1.60;1.00
48328;DHT22;34136;51.022;7.082;2023-04-03T06:34:40;1.70;1.00
48328;DHT22;34136;51.022;7.082;2023-04-03T06:37:26;1.70;1.00
48328;DHT22;34136;51.022;7.082;2023-04-03T06:40:19;1.80;1.00
48328;DHT22;34136;51.022;7.082;2023-04-03T06:43:06;1.90;1.00
48328;DHT22;34136;51.022;7.082;2023-04-03T06:45:52;2.00;1.00
48328;DHT22;34136;51.022;7.082;2023-04-03T06:48:38;2.10;1.00
48328;DHT22;34136;51.022;7.082;2023-04-03T06:51:26;2.30;1.00
48328;DHT22;34136;51.022;7.082;2023-04-03T06:54:13;2.40;1.00
48328;DHT22;34136;51.022;7.082;2023-04-03T06:56:59;2.60;1.00
48328;DHT22;34136;51.022;7.082;2023-04-03T06:59:46;2.70;1.00
48328;DHT22;34136;51.022;7.082;2023-04-03T07:02:32;2.90;1.00
48328;DHT22;34136;51.022;7.082;2023-04-03T07:05:18;3.00;1.00
48328;DHT22;34136;51.022;7.082;2023-04-03T07:08:04;3.20;1.00
48328;DHT22;34136;51.022;7.082;2023-04-03T07:10:51;3.40;1.00
48328;DHT22;34136;51.022;7.082;2023-04-03T07:13:37;3.40;1.00
48328;DHT22;34136;51.022;7.082;2023-04-03T07:16:24;3.50;1.00
48328;DHT22;34136;51.022;7.082;2023-04-03T07:19:13;3.60;1.00
48328;DHT22;34136;51.022;7.082;2023-04-03T07:21:59;3.70;1.00
48328;DHT22;34136;51.022;7.082;2023-04-03T07:24:46;3.80;1.00
48328;DHT22;34136;51.022;7.082;2023-04-03T07:27:33;3.90;1.00
48328;DHT22;34136;51.022;7.082;2023-04-03T07:30:20;4.00;1.00
48328;DHT22;34136;51.022;7.082;2023-04-03T07:33:06;4.10;1.00
48328;DHT22;34136;51.022;7.082;2023-04-03T07:35:53;4.20;1.00
48328;DHT22;34136;51.022;7.082;2023-04-03T07:38:39;4.40;1.00
48328;DHT22;34136;51.022;7.082;2023-04-03T07:41:26;4.50;1.00
48328;DHT22;34136;51.022;7.082;2023-04-03T07:44:12;4.70;1.00
48328;DHT22;34136;51.022;7.082;2023-04-03T07:46:58;4.70;1.00
48328;DHT22;34136;51.022;7.082;2023-04-03T07:49:45;4.80;1.00
48328;DHT22;34136;51.022;7.082;2023-04-03T07:52:31;4.90;1.00
48328;DHT22;34136;51.022;7.082;2023-04-03T07:55:17;5.20;1.00
48328;DHT22;34136;51.022;7.082;2023-04-03T07:58:04;5.30;1.00
48328;DHT22;34136;51.022;7.082;2023-04-03T08:00:51;5.40;1.00
48328;DHT22;34136;51.022;7.082;2023-04-03T08:03:38;5.40;1.00
48328;DHT22;34136;51.022;7.082;2023-04-03T08:06:24;5.40;1.00
48328;DHT22;34136;51.022;7.082;2023-04-03T08:09:11;5.60;1.00
48328;DHT22;34136;51.022;7.082;2023-04-03T08:15:46;5.70;1.00
48328;DHT22;34136;51.022;7.082;2023-04-03T08:18:33;5.70;1.00
48328;DHT22;34136;51.022;7.082;2023-04-03T08:21:20;5.70;1.00
48328;DHT22;34136;51.022;7.082;2023-04-03T08:24:07;5.80;1.00
48328;DHT22;34136;51.022;7.082;2023-04-03T08:26:54;6.10;1.00
48328;DHT22;34136;51.022;7.082;2023-04-03T08:29:41;6.40;1.00
48328;DHT22;34136;51.022;7.082;2023-04-03T08:32:27;6.40;1.00
48328;DHT22;34136;51.022;7.082;2023-04-03T08:35:13;6.20;1.00
48328;DHT22;34136;51.022;7.082;2023-04-03T08:38:00;6.00;1.00
48328;DHT22;34136;51.022;7.082;2023-04-03T08:40:47;6.30;1.00
48328;DHT22;34136;51.022;7.082;2023-04-03T08:50:00;7.10;1.00
48328;DHT22;34136;51.022;7.082;2023-04-03T08:52:49;7.20;1.00
48328;DHT22;34136;51.022;7.082;2023-04-03T08:55:42;7.30;1.00
48328;DHT22;34136;51.022;7.082;2023-04-03T08:58:30;7.70;1.00
48328;DHT22;34136;51.022;7.082;2023-04-03T09:01:23;7.80;1.00
48328;DHT22;34136;51.022;7.082;2023-04-03T09:04:12;7.70;1.00
48328;DHT22;34136;51.022;7.082;2023-04-03T09:07:08;7.80;1.00
48328;DHT22;34136;51.022;7.082;2023-04-03T09:09:59;8.00;1.00
48328;DHT22;34136;51.022;7.082;2023-04-03T09:12:52;8.10;1.00
48328;DHT22;34136;51.022;7.082;2023-04-03T09:15:40;8.30;1.00
48328;DHT22;34136;51.022;7.082;2023-04-03T09:18:35;8.10;1.00
48328;DHT22;34136;51.022;7.082;2023-04-03T09:21:36;8.20;1.00
48328;DHT22;34136;51.022;7.082;2023-04-03T09:24:24;8.00;1.00
48328;DHT22;34136;51.022;7.082;2023-04-03T09:27:11;7.90;1.00
48328;DHT22;34136;51.022;7.082;2023-04-03T09:29:58;8.10;1.00
48328;DHT22;34136;51.022;7.082;2023-04-03T09:32:45;8.20;1.00
48328;DHT22;34136;51.022;7.082;2023-04-03T09:35:37;8.30;1.00
48328;DHT22;34136;51.022;7.082;2023-04-03T09:38:23;8.60;1.00
48328;DHT22;34136;51.022;7.082;2023-04-03T09:41:16;8.60;1.00
48328;DHT22;34136;51.022;7.082;2023-04-03T09:44:20;8.50;1.00
48328;DHT22;34136;51.022;7.082;2023-04-03T09:47:27;8.50;1.00
48328;DHT22;34136;51.022;7.082;2023-04-03T09:53:05;8.60;1.00
48328;DHT22;34136;51.022;7.082;2023-04-03T09:55:52;8.60;1.00
48328;DHT22;34136;51.022;7.082;2023-04-03T09:58:40;8.90;1.00
48328;DHT22;34136;51.022;7.082;2023-04-03T10:01:32;9.00;1.00
48328;DHT22;34136;51.022;7.082;2023-04-03T10:04:19;9.10;1.00
48328;DHT22;34136;51.022;7.082;2023-04-03T10:07:27;9.30;1.00
48328;DHT22;34136;51.022;7.082;2023-04-03T10:10:21;9.20;1.00
48328;DHT22;34136;51.022;7.082;2023-04-03T10:13:20;9.40;1.00
48328;DHT22;34136;51.022;7.082;2023-04-03T10:16:10;9.30;1.00
48328;DHT22;34136;51.022;7.082;2023-04-03T10:19:03;9.30;1.00
48328;DHT22;34136;51.022;7.082;2023-04-03T10:25:04;9.00;1.00
48328;DHT22;34136;51.022;7.082;2023-04-03T10:28:06;9.20;1.00
48328;DHT22;34136;51.022;7.082;2023-04-03T10:31:13;9.30;1.00
48328;DHT22;34136;51.022;7.082;2023-04-03T10:35:00;9.60;1.00
48328;DHT22;34136;51.022;7.082;2023-04-03T10:37:48;9.70;1.00
48328;DHT22;34136;51.022;7.082;2023-04-03T10:47:20;9.30;1.00
48328;DHT22;34136;51.022;7.082;2023-04-03T10:50:31;9.30;1.00
48328;DHT22;34136;51.022;7.082;2023-04-03T10:59:35;10.00;1.00
48328;DHT22;34136;51.022;7.082;2023-04-03T11:05:47;10.20;1.00
48328;DHT22;34136;51.022;7.082;2023-04-03T11:08:57;10.30;1.00
48328;DHT22;34136;51.022;7.082;2023-04-03T11:11:47;10.20;1.00
48328;DHT22;34136;51.022;7.082;2023-04-03T11:14:38;10.20;1.00
48328;DHT22;34136;51.022;7.082;2023-04-03T11:17:33;10.30;1.00
48328;DHT22;34136;51.022;7.082;2023-04-03T11:20:31;10.70;1.00
48328;DHT22;34136;51.022;7.082;2023-04-03T11:23:30;11.10;1.00
48328;DHT22;34136;51.022;7.082;2023-04-03T11:26:19;11.20;1.00
48328;DHT22;34136;51.022;7.082;2023-04-03T11:29:15;11.40;1.00
48328;DHT22;34136;51.022;7.082;2023-04-03T11:35:07;11.20;1.00
48328;DHT22;34136;51.022;7.082;2023-04-03T11:37:54;11.50;1.00
48328;DHT22;34136;51.022;7.082;2023-04-03T11:40:44;11.60;1.00
48328;DHT22;34136;51.022;7.082;2023-04-03T11:43:31;11.40;1.00
48328;DHT22;34136;51.022;7.082;2023-04-03T11:46:18;11.50;1.00
48328;DHT22;34136;51.022;7.082;2023-04-03T11:49:04;11.40;1.00
48328;DHT22;34136;51.022;7.082;2023-04-03T11:51:51;11.40;1.00
48328;DHT22;34136;51.022;7.082;2023-04-03T12:09:27;11.20;1.00
48328;DHT22;34136;51.022;7.082;2023-04-03T12:12:40;11.30;1.00
48328;DHT22;34136;51.022;7.082;2023-04-03T12:15:47;11.00;1.00
48328;DHT22;34136;51.022;7.082;2023-04-03T12:27:14;11.80;1.00
48328;DHT22;34136;51.022;7.082;2023-04-03T12:33:19;11.70;1.00
48328;DHT22;34136;51.022;7.082;2023-04-03T12:36:13;11.50;1.00
48328;DHT22;34136;51.022;7.082;2023-04-03T12:42:11;11.60;1.00
48328;DHT22;34136;51.022;7.082;2023-04-03T12:45:02;11.50;1.00
48328;DHT22;34136;51.022;7.082;2023-04-03T12:47:55;11.40;1.00
48328;DHT22;34136;51.022;7.082;2023-04-03T12:50:45;11.70;1.00
48328;DHT22;34136;51.022;7.082;2023-04-03T12:53:34;11.70;1.00
48328;DHT22;34136;51.022;7.082;2023-04-03T12:56:29;11.70;1.00
48328;DHT22;34136;51.022;7.082;2023-04-03T12:59:24;11.70;1.00
48328;DHT22;34136;51.022;7.082;2023-04-03T13:02:29;11.90;1.00
48328;DHT22;34136;51.022;7.082;2023-04-03T13:05:18;11.60;1.00
48328;DHT22;34136;51.022;7.082;2023-04-03T13:08:10;11.50;1.00
48328;DHT22;34136;51.022;7.082;2023-04-03T13:11:01;11.30;1.00
48328;DHT22;34136;51.022;7.082;2023-04-03T13:14:00;11.30;1.00
48328;DHT22;34136;51.022;7.082;2023-04-03T13:16:54;11.40;1.00
48328;DHT22;34136;51.022;7.082;2023-04-03T13:19:42;11.90;1.00
48328;DHT22;34136;51.022;7.082;2023-04-03T13:22:44;12.10;1.00
48328;DHT22;34136;51.022;7.082;2023-04-03T13:25:35;11.90;1.00
48328;DHT22;34136;51.022;7.082;2023-04-03T13:28:23;11.80;1.00
48328;DHT22;34136;51.022;7.082;2023-04-03T13:34:06;11.90;1.00
48328;DHT22;34136;51.022;7.082;2023-04-03T13:39:39;11.70;1.00
48328;DHT22;34136;51.022;7.082;2023-04-03T13:42:29;11.50;1.00
48328;DHT22;34136;51.022;7.082;2023-04-03T13:48:16;11.90;1.00
48328;DHT22;34136;51.022;7.082;2023-04-03T13:54:10;11.60;1.00
48328;DHT22;34136;51.022;7.082;2023-04-03T13:57:00;11.60;1.00
48328;DHT22;34136;51.022;7.082;2023-04-03T13:59:47;12.00;1.00
48328;DHT22;34136;51.022;7.082;2023-04-03T14:02:33;11.90;1.00
48328;DHT22;34136;51.022;7.082;2023-04-03T14:05:20;11.90;1.00
48328;DHT22;34136;51.022;7.082;2023-04-03T14:08:06;11.60;1.00
48328;DHT22;34136;51.022;7.082;2023-04-03T14:10:53;11.60;1.00
48328;DHT22;34136;51.022;7.082;2023-04-03T14:13:40;11.60;1.00
48328;DHT22;34136;51.022;7.082;2023-04-03T14:16:31;11.40;1.00
48328;DHT22;34136;51.022;7.082;2023-04-03T14:19:23;11.60;1.00
48328;DHT22;34136;51.022;7.082;2023-04-03T14:25:04;11.30;1.00
48328;DHT22;34136;51.022;7.082;2023-04-03T14:27:52;11.40;1.00
48328;DHT22;34136;51.022;7.082;2023-04-03T14:30:38;11.70;1.00
48328;DHT22;34136;51.022;7.082;2023-04-03T14:33:25;11.70;1.00
48328;DHT22;34136;51.022;7.082;2023-04-03T14:36:23;11.50;1.00
48328;DHT22;34136;51.022;7.082;2023-04-03T14:39:18;11.30;1.00
48328;DHT22;34136;51.022;7.082;2023-04-03T14:42:04;11.60;1.00
48328;DHT22;34136;51.022;7.082;2023-04-03T14:44:52;11.40;1.00
48328;DHT22;34136;51.022;7.082;2023-04-03T14:47:48;11.20;1.00
48328;DHT22;34136;51.022;7.082;2023-04-03T14:50:35;11.10;1.00
48328;DHT22;34136;51.022;7.082;2023-04-03T14:53:22;11.20;1.00
48328;DHT22;34136;51.022;7.082;2023-04-03T14:56:27;11.10;1.00
48328;DHT22;34136;51.022;7.082;2023-04-03T14:59:14;11.10;1.00
48328;DHT22;34136;51.022;7.082;2023-04-03T15:02:00;11.00;1.00
48328;DHT22;34136;51.022;7.082;2023-04-03T15:04:47;11.20;1.00
48328;DHT22;34136;51.022;7.082;2023-04-03T15:07:53;11.40;1.00
48328;DHT22;34136;51.022;7.082;2023-04-03T15:10:40;11.50;1.00
48328;DHT22;34136;51.022;7.082;2023-04-03T15:13:26;11.50;1.00
48328;DHT22;34136;51.022;7.082;2023-04-03T15:16:17;11.40;1.00
48328;DHT22;34136;51.022;7.082;2023-04-03T15:19:04;11.30;1.00
48328;DHT22;34136;51.022;7.082;2023-04-03T15:21:50;11.20;1.00
48328;DHT22;34136;51.022;7.082;2023-04-03T15:24:36;11.10;1.00
48328;DHT22;34136;51.022;7.082;2023-04-03T15:27:23;11.00;1.00
48328;DHT22;34136;51.022;7.082;2023-04-03T15:30:14;10.90;1.00
48328;DHT22;34136;51.022;7.082;2023-04-03T15:33:01;11.10;1.00
48328;DHT22;34136;51.022;7.082;2023-04-03T15:35:47;10.90;1.00
48328;DHT22;34136;51.022;7.082;2023-04-03T15:38:34;10.80;1.00
48328;DHT22;34136;51.022;7.082;2023-04-03T15:41:19;10.90;1.00
48328;DHT22;34136;51.022;7.082;2023-04-03T15:44:06;10.70;1.00
48328;DHT22;34136;51.022;7.082;2023-04-03T15:46:53;10.60;1.00
48328;DHT22;34136;51.022;7.082;2023-04-03T15:49:39;10.60;1.00
48328;DHT22;34136;51.022;7.082;2023-04-03T15:52:25;10.70;1.00
48328;DHT22;34136;51.022;7.082;2023-04-03T15:55:14;10.70;1.00
48328;DHT22;34136;51.022;7.082;2023-04-03T15:58:00;10.50;1.00
48328;DHT22;34136;51.022;7.082;2023-04-03T16:00:47;10.50;1.00
48328;DHT22;34136;51.022;7.082;2023-04-03T16:03:33;10.30;1.00
48328;DHT22;34136;51.022;7.082;2023-04-03T16:06:19;10.10;1.00
48328;DHT22;34136;51.022;7.082;2023-04-03T16:09:06;10.20;1.00
48328;DHT22;34136;51.022;7.082;2023-04-03T16:11:56;10.30;1.00
48328;DHT22;34136;51.022;7.082;2023-04-03T16:14:42;10.20;1.00
48328;DHT22;34136;51.022;7.082;2023-04-03T16:17:28;10.00;1.00
48328;DHT22;34136;51.022;7.082;2023-04-03T16:20:15;9.90;1.00
48328;DHT22;34136;51.022;7.082;2023-04-03T16:23:02;9.70;1.00
48328;DHT22;34136;51.022;7.082;2023-04-03T16:25:51;9.70;1.00
48328;DHT22;34136;51.022;7.082;2023-04-03T16:28:38;9.60;1.00
48328;DHT22;34136;51.022;7.082;2023-04-03T16:31:25;9.70;1.00
48328;DHT22;34136;51.022;7.082;2023-04-03T16:34:12;9.70;1.00
48328;DHT22;34136;51.022;7.082;2023-04-03T16:36:59;9.60;1.00
48328;DHT22;34136;51.022;7.082;2023-04-03T16:39:45;9.60;1.00
48328;DHT22;34136;51.022;7.082;2023-04-03T16:42:32;9.60;1.00
48328;DHT22;34136;51.022;7.082;2023-04-03T16:45:18;9.60;1.00
48328;DHT22;34136;51.022;7.082;2023-04-03T16:48:05;9.50;1.00
48328;DHT22;34136;51.022;7.082;2023-04-03T16:50:51;9.30;1.00
48328;DHT22;34136;51.022;7.082;2023-04-03T16:53:37;9.30;1.00
48328;DHT22;34136;51.022;7.082;2023-04-03T16:56:24;9.20;1.00
48328;DHT22;34136;51.022;7.082;2023-04-03T16:59:10;9.20;1.00
48328;DHT22;34136;51.022;7.082;2023-04-03T17:01:57;9.20;1.00
48328;DHT22;34136;51.022;7.082;2023-04-03T17:04:43;9.10;1.00
48328;DHT22;34136;51.022;7.082;2023-04-03T17:07:30;9.10;1.00
48328;DHT22;34136;51.022;7.082;2023-04-03T17:10:16;9.20;1.00
48328;DHT22;34136;51.022;7.082;2023-04-03T17:13:03;9.20;1.00
48328;DHT22;34136;51.022;7.082;2023-04-03T17:15:49;9.20;1.00
48328;DHT22;34136;51.022;7.082;2023-04-03T17:18:36;9.10;1.00
48328;DHT22;34136;51.022;7.082;2023-04-03T17:21:22;9.00;1.00
48328;DHT22;34136;51.022;7.082;2023-04-03T17:24:10;8.90;1.00
48328;DHT22;34136;51.022;7.082;2023-04-03T17:26:57;8.80;1.00
48328;DHT22;34136;51.022;7.082;2023-04-03T17:29:43;8.70;1.00
48328;DHT22;34136;51.022;7.082;2023-04-03T17:32:29;8.70;1.00
48328;DHT22;34136;51.022;7.082;2023-04-03T17:35:16;8.70;1.00
48328;DHT22;34136;51.022;7.082;2023-04-03T17:38:02;8.60;1.00
48328;DHT22;34136;51.022;7.082;2023-04-03T17:40:48;8.50;1.00
48328;DHT22;34136;51.022;7.082;2023-04-03T17:43:36;8.50;1.00
48328;DHT22;34136;51.022;7.082;2023-04-03T17:46:23;8.40;1.00
48328;DHT22;34136;51.022;7.082;2023-04-03T17:49:10;8.30;1.00
48328;DHT22;34136;51.022;7.082;2023-04-03T17:51:57;8.20;1.00
48328;DHT22;34136;51.022;7.082;2023-04-03T17:54:43;8.20;1.00
48328;DHT22;34136;51.022;7.082;2023-04-03T17:57:29;8.20;1.00
48328;DHT22;34136;51.022;7.082;2023-04-03T18:00:16;8.10;1.00
48328;DHT22;34136;51.022;7.082;2023-04-03T18:03:03;8.10;1.00
48328;DHT22;34136;51.022;7.082;2023-04-03T18:05:50;8.10;1.00
48328;DHT22;34136;51.022;7.082;2023-04-03T18:08:40;8.00;1.00
48328;DHT22;34136;51.022;7.082;2023-04-03T18:11:27;8.00;1.00
48328;DHT22;34136;51.022;7.082;2023-04-03T18:14:17;8.00;1.00
48328;DHT22;34136;51.022;7.082;2023-04-03T18:17:05;7.90;1.00
48328;DHT22;34136;51.022;7.082;2023-04-03T18:19:51;7.80;1.00
48328;DHT22;34136;51.022;7.082;2023-04-03T18:22:38;7.80;1.00
48328;DHT22;34136;51.022;7.082;2023-04-03T18:25:25;7.80;1.00
48328;DHT22;34136;51.022;7.082;2023-04-03T18:28:11;7.70;1.00
48328;DHT22;34136;51.022;7.082;2023-04-03T18:30:59;7.70;1.00
48328;DHT22;34136;51.022;7.082;2023-04-03T18:33:46;7.50;1.00
48328;DHT22;34136;51.022;7.082;2023-04-03T18:36:32;7.40;1.00
48328;DHT22;34136;51.022;7.082;2023-04-03T18:39:19;7.50;1.00
48328;DHT22;34136;51.022;7.082;2023-04-03T18:42:11;7.40;1.00
48328;DHT22;34136;51.022;7.082;2023-04-03T18:45:01;7.40;1.00
48328;DHT22;34136;51.022;7.082;2023-04-03T18:47:50;7.20;1.00
48328;DHT22;34136;51.022;7.082;2023-04-03T18:50:36;7.30;1.00
48328;DHT22;34136;51.022;7.082;2023-04-03T18:53:22;7.20;1.00
48328;DHT22;34136;51.022;7.082;2023-04-03T18:56:09;7.20;1.00
48328;DHT22;34136;51.022;7.082;2023-04-03T18:58:55;7.10;1.00
48328;DHT22;34136;51.022;7.082;2023-04-03T19:01:42;7.00;1.00
48328;DHT22;34136;51.022;7.082;2023-04-03T19:04:28;6.90;1.00
48328;DHT22;34136;51.022;7.082;2023-04-03T19:07:15;6.90;1.00
48328;DHT22;34136;51.022;7.082;2023-04-03T19:10:02;6.90;1.00
48328;DHT22;34136;51.022;7.082;2023-04-03T19:12:49;6.90;1.00
48328;DHT22;34136;51.022;7.082;2023-04-03T19:15:35;6.90;1.00
48328;DHT22;34136;51.022;7.082;2023-04-03T19:18:22;6.90;1.00
48328;DHT22;34136;51.022;7.082;2023-04-03T19:21:08;6.80;1.00
48328;DHT22;34136;51.022;7.082;2023-04-03T19:23:54;6.70;1.00
48328;DHT22;34136;51.022;7.082;2023-04-03T19:26:41;6.60;1.00
48328;DHT22;34136;51.022;7.082;2023-04-03T19:29:28;6.40;1.00
48328;DHT22;34136;51.022;7.082;2023-04-03T19:32:14;6.40;1.00
48328;DHT22;34136;51.022;7.082;2023-04-03T19:35:01;6.30;1.00
48328;DHT22;34136;51.022;7.082;2023-04-03T19:37:47;6.20;1.00
48328;DHT22;34136;51.022;7.082;2023-04-03T19:40:33;6.20;1.00